Time;durP1;ratioP1;P1;durP2;ratioP2;P2;SDS_P1;SDS_P2;PMS_P1;PMS_P2;Temp;Humidity;BMP_temperature;BMP_pressure;BME280_temperature;BME280_humidity;BME280_pressure;Samples;Min_cycle;Max_cycle;Signal;HPM_P1;HPM_P2
2022/10/05 00:02:18;;;;;;;23.38;7.25;;;;;;;13.08;89.02;101411.63;6195615;23;20005;-72
2022/10/05 00:04:44;;;;;;;19.13;7.53;;;;;;;12.89;90.18;101409.13;6196023;23;20005;-73
2022/10/05 00:07:18;;;;;;;18.90;8.07;;;;;;;12.81;90.19;101409.06;6218853;23;20019;-73
2022/10/05 00:09:53;;;;;;;18.15;7.97;;;;;;;12.70;91.39;101413.75;6194023;23;20013;-72
2022/10/05 00:12:21;;;;;;;19.25;8.05;;;;;;;12.68;91.34;101414.94;6194690;23;20012;-72
2022/10/05 00:14:49;;;;;;;20.95;8.43;;;;;;;12.69;91.80;101414.75;6219199;23;20001;-72
2022/10/05 00:17:23;;;;;;;22.30;8.05;;;;;;;12.54;92.02;101424.50;6195249;23;20427;-72
2022/10/05 00:19:52;;;;;;;26.70;6.85;;;;;;;12.56;91.99;101422.47;6219360;23;20030;-72
2022/10/05 00:22:27;;;;;;;27.35;8.73;;;;;;;12.60;91.49;101423.88;6196106;23;20025;-72
2022/10/05 00:24:56;;;;;;;18.02;8.25;;;;;;;12.67;91.88;101418.66;6195605;23;20114;-72
2022/10/05 00:27:25;;;;;;;24.35;7.95;;;;;;;12.68;91.83;101420.38;6196646;23;20044;-72
2022/10/05 00:29:57;;;;;;;19.15;8.27;;;;;;;12.71;91.17;101415.47;6196324;23;19997;-72
2022/10/05 00:32:22;;;;;;;17.48;7.47;;;;;;;12.75;90.89;101416.84;6196287;23;20437;-72
2022/10/05 00:34:48;;;;;;;15.75;7.35;;;;;;;12.87;90.43;101413.88;6196096;23;19997;-72
2022/10/05 00:37:14;;;;;;;18.80;8.13;;;;;;;12.81;90.53;101403.63;6195917;23;20000;-72
2022/10/05 00:39:40;;;;;;;18.63;7.88;;;;;;;12.80;90.93;101407.38;6194873;23;20428;-72
2022/10/05 00:42:46;;;;;;;25.25;7.85;;;;;;;12.77;91.04;101401.22;6219785;23;19997;-73
2022/10/05 00:45:18;;;;;;;18.58;7.57;;;;;;;12.92;90.08;101395.22;6196760;23;20012;-72
2022/10/05 00:48:07;;;;;;;17.27;7.35;;;;;;;12.85;90.59;101396.88;6220332;23;20035;-72
2022/10/05 00:51:05;;;;;;;19.35;8.50;;;;;;;12.74;91.01;101401.56;6219809;23;20067;-72
2022/10/05 00:53:38;;;;;;;16.77;7.88;;;;;;;12.70;91.13;101400.16;6195549;23;20012;-72
2022/10/05 00:56:28;;;;;;;17.55;8.07;;;;;;;12.87;90.67;101397.56;6194440;23;20005;-72
2022/10/05 00:59:12;;;;;;;13.50;7.28;;;;;;;13.03;89.69;101397.66;6195588;23;20084;-72
2022/10/05 01:01:40;;;;;;;16.60;7.88;;;;;;;12.80;90.61;101385.63;6194484;23;20005;-72
2022/10/05 01:04:18;;;;;;;25.98;9.23;;;;;;;12.98;90.18;101389.16;6194395;23;20001;-72
2022/10/05 01:07:08;;;;;;;22.52;8.02;;;;;;;12.98;90.08;101383.72;6194183;23;20096;-72
2022/10/05 01:09:50;;;;;;;17.95;8.00;;;;;;;12.95;90.14;101375.84;6194551;23;20000;-72
2022/10/05 01:12:26;;;;;;;16.27;7.65;;;;;;;12.80;91.14;101366.59;6193974;23;19997;-72
2022/10/05 01:15:04;;;;;;;20.98;8.38;;;;;;;12.93;90.23;101369.75;6195566;23;20004;-72
2022/10/05 01:17:53;;;;;;;22.35;7.95;;;;;;;12.94;90.12;101371.44;6219336;23;20054;-72
2022/10/05 01:20:24;;;;;;;19.50;7.50;;;;;;;12.93;90.26;101369.75;6195346;23;20005;-72
2022/10/05 01:23:24;;;;;;;25.73;8.45;;;;;;;12.90;90.51;101367.34;6195752;23;20020;-72
2022/10/05 01:26:26;;;;;;;17.40;7.78;;;;;;;12.98;90.03;101370.13;6195917;23;19997;-72
2022/10/05 01:29:07;;;;;;;21.30;7.95;;;;;;;13.02;89.37;101374.19;6194326;23;20009;-72
2022/10/05 01:31:43;;;;;;;16.42;8.45;;;;;;;12.98;89.98;101361.97;6219901;23;20009;-72
2022/10/05 01:34:33;;;;;;;15.82;7.72;;;;;;;12.95;89.69;101367.72;6194609;23;20383;-72
2022/10/05 01:37:38;;;;;;;25.17;7.57;;;;;;;13.05;89.45;101363.00;6195545;23;20059;-72
2022/10/05 01:40:30;;;;;;;17.00;8.27;;;;;;;12.82;89.94;101357.28;6119587;23;20145;-72
2022/10/05 01:43:10;;;;;;;19.52;8.75;;;;;;;12.89;89.89;101352.03;6173329;23;20462;-72
2022/10/05 01:45:54;;;;;;;17.83;8.20;;;;;;;12.91;90.04;101329.16;6193916;23;20120;-72
2022/10/05 01:48:36;;;;;;;20.58;8.60;;;;;;;12.92;90.12;101319.13;6193959;23;20009;-72
2022/10/05 01:51:36;;;;;;;21.98;8.00;;;;;;;12.90;89.87;101326.56;6195552;23;20450;-72
2022/10/05 01:54:08;;;;;;;21.38;8.88;;;;;;;12.82;90.21;101329.25;6182631;23;20009;-72
2022/10/05 01:56:43;;;;;;;23.88;8.77;;;;;;;12.84;90.29;101332.66;6195291;23;19997;-72
2022/10/05 01:59:45;;;;;;;18.25;8.60;;;;;;;13.01;89.34;101340.72;6193800;23;20032;-72
2022/10/05 02:02:15;;;;;;;37.70;9.77;;;;;;;12.97;89.53;101344.78;6103280;23;20002;-72
2022/10/05 02:04:45;;;;;;;22.63;8.48;;;;;;;12.87;89.74;101351.38;6178718;23;20007;-72
2022/10/05 02:07:17;;;;;;;20.00;8.60;;;;;;;13.03;89.27;101340.56;6193754;23;20056;-72
2022/10/05 02:09:46;;;;;;;;;;;;;;;12.95;89.71;101345.97;6195914;23;20001;-72
2022/10/05 02:12:17;;;;;;;17.15;7.85;;;;;;;13.03;89.07;101340.56;6193219;23;19916;-71
2022/10/05 02:14:47;;;;;;;15.80;7.95;;;;;;;13.10;88.85;101333.44;6193708;23;20001;-72
2022/10/05 02:17:16;;;;;;;18.15;8.57;;;;;;;12.96;89.64;101325.91;6194824;23;20001;-72
2022/10/05 02:19:49;;;;;;;23.58;9.07;;;;;;;12.99;89.90;101329.19;6189758;23;20088;-72
2022/10/05 02:22:48;;;;;;;18.40;8.23;;;;;;;13.10;88.97;101322.56;6193198;23;20450;-73
2022/10/05 02:25:37;;;;;;;22.92;8.60;;;;;;;13.02;89.27;101337.00;6176563;23;20059;-73
2022/10/05 02:28:15;;;;;;;20.90;8.60;;;;;;;13.07;89.33;101333.78;6193262;23;20001;-73
2022/10/05 02:30:46;;;;;;;16.75;8.38;;;;;;;13.09;89.59;101334.47;6192686;23;20040;-73
2022/10/05 02:33:24;;;;;;;24.17;7.83;;;;;;;13.06;89.79;101326.66;6194146;23;20001;-73
2022/10/05 02:35:49;;;;;;;21.88;8.43;;;;;;;13.15;89.28;101331.09;6193294;23;20470;-73
2022/10/05 02:38:55;;;;;;;21.98;7.75;;;;;;;13.22;88.87;101332.19;6192777;23;20005;-72
2022/10/05 02:41:59;;;;;;;19.83;8.18;;;;;;;13.28;88.64;101331.53;6163500;23;20109;-72
2022/10/05 02:45:18;;;;;;;17.73;8.55;;;;;;;13.18;89.44;101325.34;6192554;23;20001;-72
2022/10/05 02:48:10;;;;;;;21.25;8.30;;;;;;;13.19;88.95;101315.31;6078475;23;20048;-72
2022/10/05 02:50:48;;;;;;;17.13;8.57;;;;;;;13.27;88.79;101312.66;6192815;23;20020;-72
2022/10/05 02:53:24;;;;;;;15.43;8.38;;;;;;;13.19;89.20;101310.72;6192616;23;20432;-73
2022/10/05 02:55:57;;;;;;;21.10;8.60;;;;;;;13.12;89.67;101298.81;6192899;23;20020;-73
2022/10/05 02:58:27;;;;;;;20.30;8.32;;;;;;;13.23;89.31;101301.25;6195107;23;20000;-72
2022/10/05 03:01:37;;;;;;;16.30;7.43;;;;;;;13.15;89.64;101293.03;6190087;23;20012;-75
2022/10/05 03:04:15;;;;;;;18.38;8.20;;;;;;;13.18;89.13;101281.00;6182869;23;20035;-74
2022/10/05 03:07:00;;;;;;;18.90;8.38;;;;;;;13.02;90.08;101287.22;6194106;23;20005;-74
2022/10/05 03:09:30;;;;;;;19.10;8.80;;;;;;;12.95;90.45;101286.16;6181250;23;20084;-75
2022/10/05 03:12:26;;;;;;;25.55;8.65;;;;;;;13.02;90.24;101281.78;6191532;23;20013;-75
2022/10/05 03:15:17;;;;;;;16.52;8.18;;;;;;;13.01;90.18;101290.94;6191224;23;20049;-75
2022/10/05 03:17:52;;;;;;;17.92;8.20;;;;;;;13.12;89.83;101282.50;6145185;23;20009;-75
2022/10/05 03:20:40;;;;;;;21.05;8.10;;;;;;;13.05;90.06;101284.19;6192210;23;20012;-75
2022/10/05 03:23:15;;;;;;;20.30;9.07;;;;;;;13.03;89.97;101288.91;6166171;23;20009;-75
2022/10/05 03:25:43;;;;;;;19.27;8.50;;;;;;;13.00;90.64;101290.09;6166009;23;20346;-75
2022/10/05 03:28:18;;;;;;;17.08;7.90;;;;;;;13.17;89.72;101291.03;6166444;23;20008;-75
2022/10/05 03:30:46;;;;;;;20.63;7.97;;;;;;;13.11;90.12;101283.53;6168192;23;20004;-74
2022/10/05 03:33:24;;;;;;;18.05;7.85;;;;;;;13.01;90.33;101269.19;6167858;23;20013;-74
2022/10/05 03:36:25;;;;;;;20.95;7.75;;;;;;;13.12;90.08;101277.06;6167901;23;20005;-74
2022/10/05 03:39:09;;;;;;;22.33;6.97;;;;;;;13.13;89.97;101273.31;6049527;23;20010;-75
2022/10/05 03:41:41;;;;;;;19.48;8.25;;;;;;;13.11;90.06;101269.94;6158610;23;20009;-75
2022/10/05 03:44:21;;;;;;;20.13;8.18;;;;;;;13.01;90.77;101280.06;6167809;23;20005;-75
2022/10/05 03:47:03;;;;;;;16.02;9.05;;;;;;;13.12;90.55;101276.22;6167603;23;20432;-75
2022/10/05 03:49:46;;;;;;;14.90;7.35;;;;;;;13.18;90.13;101265.53;6168184;23;20000;-75
2022/10/05 03:52:22;;;;;;;23.60;9.10;;;;;;;13.18;90.00;101262.81;6167892;23;20007;-75
2022/10/05 03:55:02;;;;;;;18.27;8.18;;;;;;;13.13;90.68;101267.88;6167675;23;20017;-76
2022/10/05 03:57:35;;;;;;;20.17;7.68;;;;;;;13.15;90.32;101263.13;6167161;23;19996;-75
2022/10/05 04:00:15;;;;;;;13.40;7.30;;;;;;;13.09;90.89;101261.06;6167755;23;20028;-75
2022/10/05 04:03:01;;;;;;;19.15;8.13;;;;;;;13.20;90.33;101252.66;6167790;23;20327;-75
2022/10/05 04:05:31;;;;;;;19.73;8.38;;;;;;;13.20;90.25;101252.66;6167507;23;20016;-75
2022/10/05 04:08:10;;;;;;;16.75;8.73;;;;;;;13.16;90.84;101245.78;6167623;23;20434;-75
2022/10/05 04:10:45;;;;;;;18.88;8.35;;;;;;;13.15;90.83;101249.53;6168151;23;20012;-75
2022/10/05 04:13:35;;;;;;;20.10;7.78;;;;;;;13.18;90.78;101249.22;6167657;23;20075;-75
2022/10/05 04:16:23;;;;;;;16.83;7.43;;;;;;;13.19;90.66;101250.91;6167485;23;20040;-75
2022/10/05 04:18:56;;;;;;;22.42;8.32;;;;;;;13.29;90.33;101259.78;6167536;23;20087;-75
2022/10/05 04:21:27;;;;;;;21.80;8.23;;;;;;;13.23;90.17;101256.88;6194188;23;20008;-75
2022/10/05 04:23:59;;;;;;;18.90;8.43;;;;;;;13.04;91.28;101263.47;6197094;23;20069;-75
2022/10/05 04:26:38;;;;;;;22.55;8.63;;;;;;;13.19;91.29;101255.50;6197854;23;20027;-75
2022/10/05 04:29:15;;;;;;;19.08;8.63;;;;;;;13.15;91.33;101265.84;6196570;23;20051;-75
2022/10/05 04:32:00;;;;;;;21.17;8.57;;;;;;;13.17;91.30;101261.13;6197873;23;20004;-75
2022/10/05 04:34:45;;;;;;;24.67;9.52;;;;;;;13.19;91.27;101261.78;6197187;23;20031;-75
2022/10/05 04:37:33;;;;;;;19.40;8.82;;;;;;;13.10;91.80;101261.91;6197572;23;20087;-75
2022/10/05 04:40:40;;;;;;;20.52;8.60;;;;;;;13.16;91.45;101262.09;6222957;23;20023;-76
2022/10/05 04:43:22;;;;;;;22.50;8.77;;;;;;;13.16;91.37;101245.78;6196731;23;20004;-75
2022/10/05 04:46:16;;;;;;;17.45;8.77;;;;;;;13.13;91.89;101246.13;6197416;23;20001;-74
2022/10/05 04:49:02;;;;;;;19.20;9.00;;;;;;;13.03;91.98;101248.13;6224112;23;20086;-75
2022/10/05 04:51:55;;;;;;;26.35;8.88;;;;;;;13.06;92.48;101245.09;6224359;23;20050;-75
2022/10/05 04:54:50;;;;;;;25.38;9.43;;;;;;;13.13;92.43;101250.72;6197309;23;20081;-74
2022/10/05 04:57:49;;;;;;;21.40;10.00;;;;;;;13.16;92.34;101245.78;6197586;23;20012;-75
2022/10/05 05:00:29;;;;;;;25.58;9.20;;;;;;;13.27;91.44;101242.78;6160279;23;20058;-74
2022/10/05 05:03:07;;;;;;;22.20;8.65;;;;;;;13.17;91.87;101236.66;6199150;23;20023;-74
2022/10/05 05:05:38;;;;;;;21.52;8.90;;;;;;;13.34;91.03;101236.69;6224923;23;20096;-74
2022/10/05 05:08:22;;;;;;;16.38;8.50;;;;;;;13.35;91.47;101238.38;6198210;23;20011;-73
2022/10/05 05:11:21;;;;;;;23.80;9.18;;;;;;;13.16;92.24;101239.50;6198303;23;20009;-73
2022/10/05 05:14:12;;;;;;;16.52;9.32;;;;;;;13.32;91.72;101244.19;6198163;23;20009;-74
2022/10/05 05:16:44;;;;;;;22.60;9.53;;;;;;;13.17;92.30;101242.09;6198204;23;20435;-74
2022/10/05 05:19:10;;;;;;;;;;;;;;;13.11;92.98;101242.75;6198363;23;20015;-73
2022/10/05 05:22:01;;;;;;;21.70;9.30;;;;;;;13.15;93.24;101241.38;6198663;23;19912;-74
2022/10/05 05:24:41;;;;;;;35.55;10.55;;;;;;;13.26;92.49;101237.53;6198017;23;20023;-73
2022/10/05 05:27:36;;;;;;;18.50;10.13;;;;;;;13.30;91.98;101237.03;6198257;23;20489;-74
2022/10/05 05:30:13;;;;;;;19.65;9.98;;;;;;;13.15;93.20;101235.94;6198685;23;20384;-74
2022/10/05 05:32:43;;;;;;;20.08;10.07;;;;;;;12.97;93.93;101236.03;6198725;23;20004;-74
2022/10/05 05:35:23;;;;;;;24.92;11.70;;;;;;;13.14;93.44;101242.41;6197904;23;20005;-75
2022/10/05 05:38:25;;;;;;;23.20;10.00;;;;;;;13.10;93.87;101240.16;6198289;23;20004;-75
2022/10/05 05:41:07;;;;;;;27.50;11.30;;;;;;;13.11;93.71;101231.88;6223771;23;20030;-73
2022/10/05 05:44:10;;;;;;;29.27;11.68;;;;;;;13.08;94.07;101226.75;6198195;23;20005;-74
2022/10/05 05:46:38;;;;;;;22.42;10.98;;;;;;;13.14;93.75;101230.66;6199368;23;20005;-74
2022/10/05 05:49:16;;;;;;;23.35;10.68;;;;;;;13.12;94.19;101232.72;6197653;23;20001;-73
2022/10/05 05:51:53;;;;;;;22.23;10.57;;;;;;;13.11;93.90;101226.44;6197096;23;20001;-74
2022/10/05 05:54:41;;;;;;;25.02;10.82;;;;;;;13.12;94.38;101228.13;6222635;23;20028;-73
2022/10/05 05:57:14;;;;;;;23.63;10.90;;;;;;;13.10;94.46;101229.28;6222376;23;20015;-73
2022/10/05 06:00:02;;;;;;;26.98;11.13;;;;;;;13.22;93.87;101223.41;6197435;23;19996;-73
2022/10/05 06:03:09;;;;;;;24.52;11.05;;;;;;;13.21;94.07;101221.72;6198016;23;20431;-74
2022/10/05 06:05:41;;;;;;;18.40;11.07;;;;;;;13.13;94.36;101229.81;6186839;23;20365;-74
2022/10/05 06:08:34;;;;;;;33.13;12.50;;;;;;;13.18;94.20;101232.91;6223815;23;20078;-74
2022/10/05 06:11:29;;;;;;;21.95;10.40;;;;;;;13.22;93.95;101222.56;6197333;23;20075;-73
2022/10/05 06:14:00;;;;;;;21.55;10.98;;;;;;;13.34;93.33;101214.94;6179369;23;20008;-73
2022/10/05 06:16:35;;;;;;;21.77;11.53;;;;;;;13.24;93.90;101205.06;6197406;23;20009;-75
2022/10/05 06:19:14;;;;;;;25.02;11.70;;;;;;;13.41;93.67;101205.94;6196579;23;20282;-74
2022/10/05 06:22:04;;;;;;;26.02;11.63;;;;;;;13.29;93.71;101208.13;6196876;23;20046;-74
2022/10/05 06:24:48;;;;;;;20.70;10.95;;;;;;;13.29;93.87;101213.56;6196907;23;20004;-74
2022/10/05 06:27:25;;;;;;;28.70;11.63;;;;;;;13.40;93.35;101222.44;6197039;23;20335;-74
2022/10/05 06:30:02;;;;;;;22.27;11.38;;;;;;;13.29;93.89;101224.44;6196556;23;20028;-74
2022/10/05 06:32:52;;;;;;;26.95;11.93;;;;;;;13.35;94.11;101222.06;6196747;23;20008;-73
2022/10/05 06:35:39;;;;;;;32.03;11.57;;;;;;;13.47;93.30;101231.63;6140491;23;20008;-71
2022/10/05 06:38:11;;;;;;;29.48;11.75;;;;;;;13.63;92.98;101231.63;6195883;23;20005;-71
2022/10/05 06:40:49;;;;;;;29.27;12.35;;;;;;;13.68;92.50;101217.50;6196206;23;20008;-70
2022/10/05 06:43:26;;;;;;;25.08;11.18;;;;;;;13.78;92.26;101240.81;6195837;23;20034;-70
2022/10/05 06:46:21;;;;;;;28.27;12.52;;;;;;;13.54;93.22;101238.06;6222138;23;20082;-71
2022/10/05 06:49:12;;;;;;;29.05;12.10;;;;;;;13.60;92.86;101231.97;6196087;23;20004;-72
2022/10/05 06:51:57;;;;;;;26.88;13.13;;;;;;;13.56;93.24;101226.03;6196593;23;20052;-71
2022/10/05 06:54:28;;;;;;;25.35;11.80;;;;;;;13.74;92.78;101234.00;6196410;23;20004;-72
2022/10/05 06:57:12;;;;;;;29.65;12.02;;;;;;;13.78;92.49;101224.50;6189407;23;20008;-73
2022/10/05 06:59:59;;;;;;;24.42;11.90;;;;;;;13.74;92.75;101217.66;6183519;23;20031;-71
2022/10/05 07:02:52;;;;;;;25.88;12.15;;;;;;;13.70;92.90;101227.22;6184490;23;20021;-75
2022/10/05 07:05:33;;;;;;;19.98;11.98;;;;;;;13.81;92.89;101226.00;6187171;23;20008;-75
2022/10/05 07:08:02;;;;;;;25.27;12.20;;;;;;;13.62;93.43;101229.91;6188710;23;20095;-75
2022/10/05 07:10:34;;;;;;;28.10;12.52;;;;;;;13.73;92.97;101224.13;6189000;23;20004;-71
2022/10/05 07:13:18;;;;;;;;;;;;;;;13.91;92.37;101220.41;6188601;23;20043;-71
2022/10/05 07:15:57;;;;;;;24.98;12.57;;;;;;;13.82;92.61;101225.84;6215803;23;19950;-77
2022/10/05 07:18:54;;;;;;;24.42;12.00;;;;;;;13.90;92.67;101213.25;6190164;23;20027;-75
2022/10/05 07:21:30;;;;;;;22.98;10.98;;;;;;;14.00;92.07;101208.47;6187797;23;20014;-72
2022/10/05 07:24:20;;;;;;;20.83;11.45;;;;;;;14.13;91.74;101208.78;6187902;23;20031;-77
2022/10/05 07:27:21;;;;;;;29.63;11.60;;;;;;;14.01;92.16;101207.44;6189022;23;20016;-74
2022/10/05 07:30:09;;;;;;;23.08;11.02;;;;;;;13.96;92.76;101215.31;6163425;23;20410;-71
2022/10/05 07:33:00;;;;;;;22.92;11.18;;;;;;;14.22;91.34;101215.94;6190026;23;20431;-74
2022/10/05 07:38:46;;;;;;;27.80;11.45;;;;;;;14.21;91.44;101208.75;6199833;23;20011;-72
2022/10/05 07:41:22;;;;;;;20.27;11.02;;;;;;;14.33;91.24;101207.38;6188343;23;20443;-71
2022/10/05 07:43:57;;;;;;;21.27;10.80;;;;;;;14.54;90.56;101215.03;6188828;23;20004;-72
2022/10/05 07:46:33;;;;;;;20.25;10.60;;;;;;;14.34;91.19;101209.09;6189243;23;20031;-75
2022/10/05 07:49:08;;;;;;;21.02;9.73;;;;;;;14.46;90.84;101222.31;6189415;23;20000;-75
2022/10/05 07:51:44;;;;;;;27.80;10.35;;;;;;;14.54;90.30;101203.25;6189830;23;19997;-77
2022/10/05 07:54:47;;;;;;;22.42;10.98;;;;;;;14.63;90.59;101213.09;6189753;23;20009;-77
2022/10/05 07:57:31;;;;;;;19.73;9.65;;;;;;;14.74;90.34;101209.16;6189394;23;20032;-71
2022/10/05 08:00:16;;;;;;;20.85;10.63;;;;;;;14.33;91.71;101212.81;6190351;23;20009;-74
2022/10/05 08:02:54;;;;;;;22.92;11.63;;;;;;;14.48;91.31;101214.88;6189651;23;20074;-78
2022/10/05 08:05:46;;;;;;;22.77;10.52;;;;;;;14.53;91.41;101216.03;6189483;23;20063;-77
2022/10/05 08:08:27;;;;;;;20.67;10.80;;;;;;;14.60;91.15;101224.34;6175406;23;20278;-72
2022/10/05 08:11:08;;;;;;;16.40;9.70;;;;;;;14.60;90.83;101224.34;6189695;23;20082;-74
2022/10/05 08:13:42;;;;;;;20.90;10.93;;;;;;;14.44;92.00;101224.38;6216990;23;20012;-74
2022/10/05 08:16:11;;;;;;;21.17;10.63;;;;;;;14.51;91.50;101214.50;6191328;23;20031;-74
2022/10/05 08:18:58;;;;;;;26.40;10.40;;;;;;;14.48;91.75;101225.78;6191518;23;20023;-74
2022/10/05 08:21:35;;;;;;;21.40;11.15;;;;;;;14.64;90.94;101220.25;6192054;23;20126;-72
2022/10/05 08:24:18;;;;;;;23.13;9.73;;;;;;;14.87;90.15;101213.00;6191681;23;20079;-71
2022/10/05 08:27:12;;;;;;;29.23;10.13;;;;;;;15.04;89.35;101232.00;6190653;23;20083;-73
2022/10/05 08:29:55;;;;;;;20.33;10.32;;;;;;;15.04;89.06;101226.53;6180463;23;20001;-71
2022/10/05 08:32:33;;;;;;;27.17;10.20;;;;;;;15.13;88.87;101225.47;6190837;23;20424;-71
2022/10/05 08:35:20;;;;;;;15.80;8.50;;;;;;;15.10;88.98;101237.59;6218048;23;20059;-71
2022/10/05 08:37:47;;;;;;;20.10;9.13;;;;;;;15.02;89.21;101234.06;6192820;23;20011;-72
2022/10/05 08:40:28;;;;;;;19.88;10.45;;;;;;;15.14;88.25;101227.19;6191318;23;20104;-73
2022/10/05 08:43:31;;;;;;;19.98;9.35;;;;;;;15.25;88.23;101229.47;6190841;23;20009;-70
2022/10/05 08:46:11;;;;;;;24.35;10.00;;;;;;;15.35;88.17;101223.78;6191086;23;20008;-72
2022/10/05 08:48:43;;;;;;;19.52;10.07;;;;;;;15.33;88.10;101226.72;6189596;23;20004;-74
2022/10/05 08:51:27;;;;;;;21.83;10.85;;;;;;;15.46;87.79;101221.50;6191240;23;20454;-72
2022/10/05 08:54:11;;;;;;;23.88;10.85;;;;;;;15.43;87.64;101232.78;6190959;23;20008;-71
2022/10/05 08:57:07;;;;;;;15.68;10.00;;;;;;;15.48;87.45;101224.03;6218055;23;20005;-71
2022/10/05 09:00:03;;;;;;;18.25;10.63;;;;;;;15.57;86.73;101227.56;6190655;23;20004;-72
2022/10/05 09:02:48;;;;;;;22.38;10.50;;;;;;;15.70;86.36;101238.75;6193252;23;19997;-70
2022/10/05 09:05:16;;;;;;;23.25;9.55;;;;;;;15.65;85.98;101219.34;6191295;23;20084;-70
2022/10/05 09:08:07;;;;;;;20.08;10.07;;;;;;;15.42;86.44;101220.16;6191620;23;20016;-70
2022/10/05 09:11:03;;;;;;;19.58;9.90;;;;;;;15.23;86.15;101228.81;6190824;23;20043;-70
2022/10/05 09:13:53;;;;;;;16.55;8.98;;;;;;;15.24;86.34;101225.06;6192469;23;20013;-70
2022/10/05 09:16:51;;;;;;;17.23;9.32;;;;;;;15.17;86.07;101251.34;6191430;23;20005;-70
2022/10/05 09:19:50;;;;;;;18.73;9.07;;;;;;;15.27;86.01;101221.97;6190870;23;20083;-70
2022/10/05 09:22:36;;;;;;;25.15;9.05;;;;;;;15.45;85.52;101214.34;6189618;23;20012;-70
2022/10/05 09:25:20;;;;;;;28.98;9.23;;;;;;;15.62;84.95;101214.25;6189573;23;19997;-70
2022/10/05 09:27:55;;;;;;;13.73;8.15;;;;;;;15.55;84.54;101218.72;6217231;23;20013;-70
2022/10/05 09:30:26;;;;;;;20.35;8.48;;;;;;;15.45;84.58;101224.38;6190359;23;20000;-70
2022/10/05 09:32:57;;;;;;;16.23;8.75;;;;;;;15.59;84.74;101214.59;6190055;23;20008;-70
2022/10/05 09:35:35;;;;;;;14.25;9.32;;;;;;;15.65;83.75;101220.19;6189733;23;20044;-70
2022/10/05 09:38:26;;;;;;;13.38;9.13;;;;;;;15.80;83.59;101212.06;6216457;23;20007;-71
2022/10/05 09:41:03;;;;;;;15.55;8.52;;;;;;;15.80;82.48;101212.06;6189850;23;20039;-72
2022/10/05 09:44:02;;;;;;;14.25;8.07;;;;;;;15.98;82.54;101203.53;6216954;23;20005;-71
2022/10/05 09:46:46;;;;;;;16.55;8.60;;;;;;;16.04;81.29;101191.00;6189275;23;20000;-71
2022/10/05 09:49:33;;;;;;;15.75;10.15;;;;;;;16.15;80.87;101196.00;6189323;23;20005;-71
2022/10/05 09:52:26;;;;;;;18.17;10.10;;;;;;;16.02;81.02;101194.75;6215746;23;20009;-71
2022/10/05 09:55:19;;;;;;;24.30;9.90;;;;;;;15.88;80.74;101190.13;6190158;23;20009;-70
2022/10/05 09:57:57;;;;;;;13.98;9.13;;;;;;;15.85;80.25;101225.16;6190843;23;20007;-70
2022/10/05 10:00:40;;;;;;;13.63;8.82;;;;;;;15.74;80.23;101190.94;6217285;23;20071;-70
2022/10/05 10:03:24;;;;;;;18.63;8.75;;;;;;;15.70;81.14;101205.97;6189715;23;20007;-70
2022/10/05 10:06:27;;;;;;;15.38;8.70;;;;;;;15.74;81.37;101191.78;6188922;23;20008;-70
2022/10/05 10:09:16;;;;;;;13.75;8.40;;;;;;;16.07;80.58;101196.09;6188728;23;20146;-70
2022/10/05 10:11:47;;;;;;;20.17;7.93;;;;;;;15.97;80.67;101189.03;6188587;23;20066;-70
2022/10/05 10:14:22;;;;;;;12.32;7.60;;;;;;;16.00;80.89;101180.44;6187372;23;20004;-70
2022/10/05 10:17:12;;;;;;;26.38;8.10;;;;;;;15.92;81.20;101177.81;6214801;23;20005;-69
2022/10/05 10:20:00;;;;;;;21.20;8.77;;;;;;;15.86;81.60;101175.81;6184600;23;20413;-70
2022/10/05 10:23:05;;;;;;;15.05;7.28;;;;;;;15.81;82.10;101180.97;6158735;23;20036;-70
2022/10/05 10:25:55;;;;;;;14.13;7.97;;;;;;;15.70;82.04;101189.59;6159954;23;20020;-70
2022/10/05 10:28:34;;;;;;;14.57;7.40;;;;;;;15.73;82.13;101172.88;6159407;23;20004;-71
2022/10/05 10:31:15;;;;;;;17.20;7.43;;;;;;;15.81;82.25;101180.97;6158844;23;20036;-70
2022/10/05 10:33:53;;;;;;;11.45;7.20;;;;;;;15.96;81.77;101176.38;6157789;23;20059;-70
2022/10/05 10:36:43;;;;;;;11.27;6.80;;;;;;;15.85;81.58;101171.41;6158979;23;20009;-70
2022/10/05 10:39:47;;;;;;;22.27;7.75;;;;;;;16.01;81.37;101171.22;6158009;23;20096;-71
2022/10/05 10:42:36;;;;;;;13.00;7.03;;;;;;;16.05;81.15;101182.63;6159414;23;20001;-71
2022/10/05 10:45:36;;;;;;;13.13;7.57;;;;;;;15.69;81.46;101182.44;6159434;23;20004;-71
2022/10/05 10:48:50;;;;;;;12.35;7.00;;;;;;;15.83;81.35;101183.50;6158980;23;20494;-71
2022/10/05 10:51:40;;;;;;;13.05;7.63;;;;;;;15.85;81.39;101171.41;6070272;23;20069;-71
2022/10/05 10:54:17;;;;;;;12.05;7.10;;;;;;;15.95;80.59;101182.88;6160000;23;20005;-70
2022/10/05 10:56:57;;;;;;;14.10;7.55;;;;;;;15.65;81.36;101186.59;6187151;23;20000;-71
2022/10/05 11:00:00;;;;;;;13.73;7.28;;;;;;;15.67;81.17;101189.97;6160100;23;20001;-71
2022/10/05 11:02:36;;;;;;;14.85;7.28;;;;;;;15.96;79.98;101167.34;6160181;23;20432;-70
2022/10/05 11:05:19;;;;;;;21.27;6.93;;;;;;;15.85;80.60;101171.41;6160225;23;19997;-71
2022/10/05 11:08:31;;;;;;;12.38;6.88;;;;;;;15.73;81.41;101161.94;6160872;23;20044;-69
2022/10/05 11:11:22;;;;;;;16.65;6.95;;;;;;;15.83;80.96;101162.50;6159211;23;19997;-72
2022/10/05 11:14:01;;;;;;;12.13;6.80;;;;;;;16.00;80.56;101177.72;6158009;23;20060;-72
2022/10/05 11:16:40;;;;;;;13.88;7.00;;;;;;;15.78;81.08;101164.97;6158328;23;20016;-70
2022/10/05 11:19:11;;;;;;;12.02;6.93;;;;;;;15.87;80.32;101163.84;6158450;23;20011;-69
2022/10/05 11:21:53;;;;;;;21.83;7.95;;;;;;;15.78;80.34;101158.66;6182200;23;20015;-70
2022/10/05 11:24:50;;;;;;;13.02;6.78;;;;;;;15.74;80.87;101163.63;6183798;23;20023;-70
2022/10/05 11:27:57;;;;;;;13.23;6.57;;;;;;;15.92;80.53;101161.41;6183634;23;20008;-69
2022/10/05 11:30:54;;;;;;;13.48;6.45;;;;;;;15.95;80.18;101171.97;6184361;23;20495;-72
2022/10/05 11:33:23;;;;;;;11.93;6.22;;;;;;;15.83;80.74;101159.78;6132450;23;20013;-70
2022/10/05 11:36:20;;;;;;;13.13;6.60;;;;;;;15.67;81.35;101151.75;6182503;23;20024;-69
2022/10/05 11:38:54;;;;;;;15.45;6.80;;;;;;;15.79;80.76;101146.72;6184019;23;20037;-69
2022/10/05 11:41:28;;;;;;;12.45;6.07;;;;;;;15.92;80.27;101153.22;6184415;23;20005;-70
2022/10/05 11:44:03;;;;;;;16.83;5.82;;;;;;;15.71;81.02;101143.03;6183303;23;20000;-72
2022/10/05 11:47:04;;;;;;;20.60;6.03;;;;;;;16.04;80.23;101136.34;6183044;23;20012;-70
2022/10/05 11:49:36;;;;;;;18.88;6.13;;;;;;;15.99;80.58;101129.59;6183692;23;20001;-71
2022/10/05 11:52:11;;;;;;;22.35;6.38;;;;;;;16.09;80.84;101133.91;6186365;23;20324;-71
2022/10/05 11:54:54;;;;;;;10.93;5.57;;;;;;;16.22;80.03;101136.84;6185040;23;20004;-70
2022/10/05 11:57:36;;;;;;;12.45;5.40;;;;;;;15.91;80.86;101129.69;6183907;23;20011;-69
2022/10/05 12:00:15;;;;;;;9.55;5.03;;;;;;;15.93;80.76;101119.41;6184417;23;20059;-71
2022/10/05 12:02:58;;;;;;;10.07;5.03;;;;;;;16.02;79.94;101112.81;6184417;23;20001;-71
2022/10/05 12:06:04;;;;;;;8.48;5.15;;;;;;;16.01;79.59;101116.59;6181870;23;20009;-71
2022/10/05 12:08:39;;;;;;;8.00;4.28;;;;;;;16.04;79.11;101109.03;6185525;23;20075;-71
2022/10/05 12:11:39;;;;;;;9.05;4.65;;;;;;;16.13;78.20;101113.41;6184080;23;20015;-71
2022/10/05 12:14:32;;;;;;;7.82;3.85;;;;;;;16.20;78.28;101108.88;6184933;23;20009;-71
2022/10/05 12:17:19;;;;;;;11.35;4.20;;;;;;;16.32;78.16;101118.28;6184501;23;20007;-71
2022/10/05 12:19:54;;;;;;;12.57;4.63;;;;;;;16.16;77.57;101102.06;6185306;23;20009;-71
2022/10/05 12:22:28;;;;;;;12.23;4.85;;;;;;;16.14;77.93;101093.22;6184926;23;19993;-71
2022/10/05 12:25:01;;;;;;;11.23;3.95;;;;;;;16.40;77.25;101093.56;6186967;23;20016;-71
2022/10/05 12:27:34;;;;;;;9.88;4.13;;;;;;;16.49;77.13;101086.94;6179959;23;20017;-71
2022/10/05 12:30:17;;;;;;;6.75;3.38;;;;;;;16.67;76.59;101082.97;6185788;23;20013;-70
2022/10/05 12:33:01;;;;;;;7.90;3.97;;;;;;;16.62;76.55;101080.78;6184445;23;20009;-71